Time;durP1;ratioP1;P1;durP2;ratioP2;P2;SDS_P1;SDS_P2;PMS_P1;PMS_P2;Temp;Humidity;BMP_temperature;BMP_pressure;BME280_temperature;BME280_humidity;BME280_pressure;Samples;Min_cycle;Max_cycle;Signal;HPM_P1;HPM_P2
2022/04/28 00:00:34;;;;;;;;;27.25;25.75;;;;;14.83;43.71;102070.22;4949121;28;45330;-89
2022/04/28 00:02:59;;;;;;;;;33.25;30.00;;;;;14.90;43.70;102091.44;4961067;28;45464;-88
2022/04/28 00:05:25;;;;;;;;;35.75;30.50;;;;;14.96;43.75;102101.16;4957240;28;47127;-89
2022/04/28 00:07:50;;;;;;;;;33.00;31.00;;;;;14.83;44.13;102076.41;4941045;28;45286;-88
2022/04/28 00:10:18;;;;;;;;;34.25;31.50;;;;;14.71;44.04;102074.66;4957942;28;45297;-89
2022/04/28 00:12:44;;;;;;;;;33.25;29.75;;;;;14.81;43.70;102098.50;4941472;28;45534;-89
2022/04/28 00:15:10;;;;;;;;;33.75;31.00;;;;;14.86;44.09;102115.28;4940927;28;46871;-88
2022/04/28 00:17:36;;;;;;;;;33.00;29.00;;;;;14.54;43.91;102058.75;4942533;28;45545;-90
2022/04/28 00:20:02;;;;;;;;;32.75;29.50;;;;;14.82;44.41;102113.53;4957447;28;45428;-90
2022/04/28 00:22:31;;;;;;;;;28.00;23.75;;;;;14.64;44.09;102088.75;4957230;28;45428;-90
2022/04/28 00:24:56;;;;;;;;;31.00;28.00;;;;;14.81;44.63;102110.00;4957196;28;46995;-90
2022/04/28 00:27:22;;;;;;;;;34.25;30.25;;;;;14.68;44.02;102085.25;4957031;28;45516;-90
2022/04/28 00:29:47;;;;;;;;;32.75;29.50;;;;;14.78;44.49;102102.94;4941463;28;45289;-90
2022/04/28 00:32:13;;;;;;;;;29.75;28.00;;;;;14.58;44.48;102066.69;4943173;28;45589;-90
2022/04/28 00:34:38;;;;;;;;;35.00;31.50;;;;;14.60;44.55;102073.75;4961672;28;47288;-89
2022/04/28 00:37:05;;;;;;;;;29.00;26.50;;;;;14.69;44.48;102089.66;4967303;28;45499;-90
2022/04/28 00:39:30;;;;;;;;;29.75;26.50;;;;;14.60;44.64;102083.47;4964926;28;45380;-89
2022/04/28 00:41:56;;;;;;;;;29.50;29.00;;;;;14.54;44.75;102084.34;4960937;28;45339;-88
2022/04/28 00:44:22;;;;;;;;;32.25;29.00;;;;;14.41;44.57;102069.28;4960752;28;48136;-91
2022/04/28 00:46:47;;;;;;;;;33.75;26.50;;;;;14.37;44.72;102070.16;4943700;28;45345;-89
2022/04/28 00:51:59;;;;;;;;;30.25;27.00;;;;;14.44;44.79;102099.31;4945173;28;45347;-89
2022/04/28 00:54:26;;;;;;;;;37.25;30.75;;;;;14.13;45.21;102054.19;4943836;28;48162;-90
2022/04/28 00:56:51;;;;;;;;;30.50;28.50;;;;;14.19;44.77;102069.22;4943990;28;45400;-90
2022/04/28 00:59:20;;;;;;;;;31.25;30.50;;;;;14.37;44.95;102101.94;4945656;28;45238;-90
2022/04/28 01:01:46;;;;;;;;;30.00;29.25;;;;;14.38;45.54;102098.41;4947718;28;45318;-89
2022/04/28 01:04:11;;;;;;;;;33.25;28.50;;;;;14.03;45.42;102048.88;4960775;28;46567;-90
2022/04/28 01:06:41;;;;;;;;;31.50;30.75;;;;;13.98;45.42;102046.22;4946285;28;45413;-90
2022/04/28 01:09:06;;;;;;;;;29.50;26.75;;;;;14.11;45.31;102074.50;4944753;28;45254;-89
2022/04/28 01:11:33;;;;;;;;;41.50;31.75;;;;;14.23;45.00;102097.50;4946152;28;45149;-89
2022/04/28 01:13:59;;;;;;;;;32.50;28.50;;;;;14.19;45.77;102095.69;4944382;28;48151;-89
2022/04/28 01:16:25;;;;;;;;;26.00;25.50;;;;;13.98;45.83;102053.25;4954827;28;45599;-90
2022/04/28 01:18:50;;;;;;;;;31.75;27.00;;;;;14.08;45.98;102082.44;4960821;28;45337;-89
2022/04/28 01:21:20;;;;;;;;;27.00;25.25;;;;;13.97;45.39;102068.28;4944252;28;45411;-91
2022/04/28 01:23:45;;;;;;;;;31.00;27.25;;;;;13.92;45.53;102063.84;4944051;28;47281;-89
2022/04/28 01:26:13;;;;;;;;;34.25;29.25;;;;;14.06;46.06;102088.59;4959547;28;45390;-90
2022/04/28 01:28:38;;;;;;;;;28.50;25.00;;;;;13.79;45.62;102047.94;4959864;28;45326;-89
2022/04/28 01:31:05;;;;;;;;;27.75;25.50;;;;;13.93;45.89;102066.50;4960739;28;45538;-90
2022/04/28 01:33:32;;;;;;;;;29.25;26.75;;;;;13.94;46.21;102078.84;4960834;28;48202;-89
2022/04/28 01:35:58;;;;;;;;;30.00;29.25;;;;;14.00;45.99;102096.53;4960652;28;45473;-89
2022/04/28 01:38:24;;;;;;;;;28.50;24.75;;;;;13.77;45.98;102065.56;4961075;28;45324;-90
2022/04/28 01:40:52;;;;;;;;;29.75;27.25;;;;;13.93;46.36;102098.28;4960756;28;45321;-90
2022/04/28 01:43:19;;;;;;;;;24.25;22.75;;;;;13.69;46.43;102056.69;4943456;28;47476;-91
2022/04/28 01:45:45;;;;;;;;;31.50;27.00;;;;;13.85;46.09;102084.13;4944376;28;45801;-90
2022/04/28 01:48:10;;;;;;;;;27.00;26.00;;;;;13.75;46.90;102067.31;4947772;28;45503;-89
2022/04/28 01:50:36;;;;;;;;;27.25;25.00;;;;;13.83;46.65;102084.09;4961784;28;45502;-92
2022/04/28 01:55:45;;;;;;;;;24.25;24.25;;;;;13.80;46.60;102099.09;4946091;28;45380;-90
2022/04/28 01:58:11;;;;;;;;;28.50;26.50;;;;;13.61;46.89;102061.06;4947681;28;45424;-89
2022/04/28 02:00:37;;;;;;;;;32.00;29.25;;;;;13.58;46.84;102056.66;4947877;28;45615;-89
2022/04/28 02:03:06;;;;;;;;;29.50;26.75;;;;;13.76;46.50;102089.34;4948004;28;45405;-89
2022/04/28 02:05:32;;;;;;;;;26.75;23.25;;;;;13.61;46.54;102080.47;4947296;28;45954;-89
2022/04/28 02:08:01;;;;;;;;;22.00;20.25;;;;;13.70;47.28;102097.28;4961467;28;45382;-89
2022/04/28 02:10:26;;;;;;;;;28.75;25.50;;;;;13.36;46.84;102055.63;4942750;28;45479;-88
2022/04/28 02:12:52;;;;;;;;;28.00;25.50;;;;;13.41;47.07;102064.47;4944045;28;46273;-88
2022/04/28 02:15:18;;;;;;;;;26.00;25.75;;;;;13.61;46.68;102101.66;4962191;28;45364;-89
2022/04/28 02:17:43;;;;;;;;;32.25;27.50;;;;;13.51;46.65;102086.59;4946314;28;45421;-89
2022/04/28 02:20:11;;;;;;;;;26.50;23.50;;;;;13.56;47.23;102102.50;4961037;28;45359;-90
2022/04/28 02:22:37;;;;;;;;;30.25;28.00;;;;;13.55;47.00;102108.66;4959243;28;47533;-89
2022/04/28 02:25:03;;;;;;;;;27.75;26.75;;;;;13.51;47.12;102107.75;4944616;28;45237;-90
2022/04/28 02:27:29;;;;;;;;;34.00;28.50;;;;;13.41;47.19;102097.97;4954583;28;45427;-89
2022/04/28 02:29:55;;;;;;;;;28.75;26.25;;;;;13.36;47.13;102081.19;4935983;28;45573;-90
2022/04/28 02:32:20;;;;;;;;;29.00;27.25;;;;;13.40;47.35;102110.34;4943014;28;47936;-89
2022/04/28 02:34:46;;;;;;;;;22.75;22.75;;;;;13.36;47.21;102094.41;4944163;28;45307;-89
2022/04/28 02:37:11;;;;;;;;;25.75;21.50;;;;;13.24;47.35;102089.91;4941048;28;45442;-89
2022/04/28 02:39:37;;;;;;;;;31.00;30.00;;;;;13.39;47.27;102118.25;4923799;28;45905;-89
2022/04/28 02:42:03;;;;;;;;;24.75;23.25;;;;;13.09;47.73;102077.44;4928633;28;48376;-90
2022/04/28 02:44:28;;;;;;;;;30.50;27.75;;;;;13.24;47.32;102098.72;4931255;28;45309;-91
2022/04/28 02:46:53;;;;;;;;;29.00;26.25;;;;;13.19;47.30;102110.16;4925604;28;45593;-89
2022/04/28 02:49:19;;;;;;;;;26.75;24.75;;;;;13.35;47.43;102119.13;4940035;28;45495;-90
2022/04/28 02:51:44;;;;;;;;;34.75;30.25;;;;;13.25;47.55;102107.53;4939629;28;47218;-89
2022/04/28 02:54:10;;;;;;;;;30.25;22.75;;;;;13.19;47.63;102099.56;4932675;28;45206;-90
2022/04/28 02:56:36;;;;;;;;;31.75;26.25;;;;;13.28;47.64;102112.00;4939658;28;45253;-92
2022/04/28 02:59:01;;;;;;;;;29.75;25.25;;;;;13.20;47.92;102117.19;4933279;28;45265;-90
2022/04/28 03:01:27;;;;;;;;;25.25;22.75;;;;;13.18;47.95;102111.91;4926340;28;48264;-89
2022/04/28 03:03:54;;;;;;;;;33.00;29.50;;;;;13.15;47.68;102125.13;4923754;28;45432;-90
2022/04/28 03:11:49;;;;;;;;;27.50;24.50;;;;;13.06;48.09;102105.63;4916010;28;45467;-89
2022/04/28 03:14:15;;;;;;;;;28.50;28.00;;;;;13.03;48.01;102101.22;4948911;28;45346;-89
2022/04/28 03:16:59;;;;;;;;;30.75;27.50;;;;;12.85;48.33;102078.16;4935412;28;45187;-89
2022/04/28 03:19:24;;;;;;;;;30.50;27.00;;;;;12.89;47.92;102100.22;4938158;28;45343;-90
2022/04/28 03:21:50;;;;;;;;;28.50;25.50;;;;;12.88;48.36;102119.56;4925512;28;48019;-90
2022/04/28 03:24:40;;;;;;;;;29.00;24.50;;;;;12.96;48.47;102142.59;4929526;28;45848;-91
2022/04/28 03:27:33;;;;;;;;;28.25;27.50;;;;;12.87;48.68;102129.28;4958328;28;45274;-91
2022/04/28 03:30:10;;;;;;;;;28.75;25.75;;;;;12.58;48.27;102077.03;4847143;29;45606;-89
2022/04/28 03:32:36;;;;;;;;;30.00;25.25;;;;;12.78;48.51;102124.78;4921286;28;47099;-91
2022/04/28 03:35:01;;;;;;;;;27.00;24.75;;;;;12.50;48.42;102078.72;4926252;28;45788;-90
2022/04/28 03:37:26;;;;;;;;;32.50;26.25;;;;;12.66;48.55;102107.94;4929705;28;45285;-88
2022/04/28 03:39:52;;;;;;;;;28.50;25.00;;;;;12.60;48.63;102099.94;4942006;28;45281;-89
2022/04/28 03:42:17;;;;;;;;;35.75;30.75;;;;;12.66;48.88;102129.06;4941367;28;48467;-89
2022/04/28 03:44:43;;;;;;;;;23.50;20.25;;;;;12.62;48.86;102129.91;4931516;28;45179;-86
2022/04/28 03:47:08;;;;;;;;;28.25;25.75;;;;;12.64;49.11;102130.78;4935531;28;45285;-87
2022/04/28 03:49:34;;;;;;;;;32.25;31.25;;;;;12.42;49.11;102103.28;4921832;28;46293;-88
2022/04/28 03:51:59;;;;;;;;;32.50;29.75;;;;;12.62;49.27;102137.84;4940077;28;48547;-88
2022/04/28 03:54:25;;;;;;;;;27.50;25.50;;;;;12.64;49.32;102141.38;4930620;28;45434;-87
2022/04/28 03:56:50;;;;;;;;;28.25;24.00;;;;;12.65;49.20;102148.44;4921854;28;45468;-88
2022/04/28 03:59:16;;;;;;;;;33.00;27.75;;;;;12.36;49.44;102096.19;4934688;28;45452;-87
2022/04/28 04:01:41;;;;;;;;;27.25;23.25;;;;;12.38;49.36;102105.00;4940523;28;46897;-88
2022/04/28 04:04:07;;;;;;;;;29.75;26.00;;;;;12.52;49.20;102121.88;4928603;28;45499;-85
2022/04/28 04:06:32;;;;;;;;;31.00;25.50;;;;;12.32;49.62;102091.72;4936517;28;45471;-87
2022/04/28 04:08:58;;;;;;;;;30.25;27.25;;;;;12.66;49.43;102150.19;4921012;28;45343;-87
2022/04/28 04:11:23;;;;;;;;;28.25;28.00;;;;;12.65;49.55;102146.69;4922031;28;45724;-88
2022/04/28 04:13:50;;;;;;;;;32.25;28.75;;;;;12.64;49.25;102147.53;4921124;28;45391;-87
2022/04/28 04:16:15;;;;;;;;;33.75;30.25;;;;;12.27;49.36;102086.41;4922403;28;45487;-87
2022/04/28 04:18:41;;;;;;;;;36.00;32.75;;;;;12.35;49.42;102107.63;4922802;28;45737;-87
2022/04/28 04:21:07;;;;;;;;;29.75;29.00;;;;;12.55;49.29;102150.09;4923260;28;45232;-87
2022/04/28 04:23:32;;;;;;;;;31.75;29.75;;;;;12.48;49.55;102129.75;4933763;28;45355;-88
2022/04/28 04:25:58;;;;;;;;;29.25;28.50;;;;;12.53;49.58;102142.13;4942980;28;45196;-87
2022/04/28 04:28:24;;;;;;;;;34.75;29.75;;;;;12.64;49.57;102176.59;4959986;28;45245;-88
2022/04/28 04:33:35;;;;;;;;;35.50;32.50;;;;;12.64;49.72;102165.16;4961338;28;45309;-87
2022/04/28 04:36:00;;;;;;;;;37.25;30.75;;;;;12.66;49.71;102172.22;4969560;28;45389;-87
2022/04/28 04:38:26;;;;;;;;;30.50;28.00;;;;;12.36;49.62;102120.84;4960818;28;45334;-87
2022/04/28 04:40:51;;;;;;;;;29.50;26.50;;;;;12.56;49.69;102160.69;4943250;28;47234;-86
2022/04/28 04:43:17;;;;;;;;;34.00;31.25;;;;;12.24;49.79;102115.44;4930842;28;45484;-87
2022/04/28 04:45:43;;;;;;;;;34.50;31.00;;;;;12.35;50.21;102127.00;4961549;28;45493;-87
2022/04/28 04:48:11;;;;;;;;;30.75;30.75;;;;;12.60;49.92;102168.63;4960470;28;45361;-87
2022/04/28 04:50:40;;;;;;;;;31.00;29.50;;;;;12.55;49.79;102156.25;4961043;28;46262;-88
2022/04/28 04:53:07;;;;;;;;;36.00;31.25;;;;;12.39;50.02;102134.94;4959679;28;45424;-88
2022/04/28 04:55:33;;;;;;;;;31.00;27.50;;;;;12.54;49.79;102157.13;4943596;28;45359;-87
2022/04/28 04:57:59;;;;;;;;;42.50;33.00;;;;;12.30;49.95;102109.34;4961124;28;45416;-87
2022/04/28 05:00:25;;;;;;;;;32.25;26.25;;;;;12.38;49.93;102114.69;4944616;28;48161;-87
2022/04/28 05:02:51;;;;;;;;;41.25;34.00;;;;;12.41;49.80;102125.28;4961475;28;45263;-86
2022/04/28 05:05:16;;;;;;;;;35.00;31.25;;;;;12.58;49.97;102169.50;4944982;28;45282;-86
2022/04/28 05:07:42;;;;;;;;;33.50;31.25;;;;;12.44;50.35;102147.34;4943219;28;45249;-87
2022/04/28 05:10:08;;;;;;;;;37.00;32.50;;;;;12.44;49.89;102144.69;4943002;28;48061;-86
2022/04/28 05:12:34;;;;;;;;;36.75;34.25;;;;;12.47;50.00;102143.84;4943292;28;45888;-89
2022/04/28 05:14:59;;;;;;;;;35.25;31.00;;;;;12.74;50.37;102196.09;4959677;28;45428;-88
2022/04/28 05:17:27;;;;;;;;;32.75;27.00;;;;;12.77;50.38;102197.00;4959617;28;45760;-88
2022/04/28 05:19:56;;;;;;;;;37.50;30.50;;;;;12.74;49.96;102199.63;4951378;28;47151;-87
2022/04/28 05:22:22;;;;;;;;;35.50;32.75;;;;;12.66;50.17;102185.44;4962373;28;45642;-88
2022/04/28 05:24:47;;;;;;;;;37.50;29.75;;;;;12.71;49.81;102196.06;4937855;28;45179;-87
2022/04/28 05:27:14;;;;;;;;;31.75;31.50;;;;;12.79;49.87;102216.41;4941858;28;45284;-87
2022/04/28 05:29:39;;;;;;;;;36.75;32.00;;;;;12.50;50.25;102163.25;4964030;28;45475;-88
2022/04/28 05:32:05;;;;;;;;;39.00;31.75;;;;;12.83;50.12;102227.91;4945799;28;45629;-86
2022/04/28 05:34:30;;;;;;;;;32.50;29.75;;;;;12.77;50.18;102219.91;4967539;28;45308;-87
2022/04/28 05:36:56;;;;;;;;;35.25;27.75;;;;;12.76;50.04;102213.72;4966289;28;45724;-86
2022/04/28 05:39:22;;;;;;;;;34.75;29.75;;;;;12.74;50.43;102207.53;4961945;28;47854;-87
2022/04/28 05:41:48;;;;;;;;;36.00;32.75;;;;;12.66;49.99;102189.84;4951201;28;45427;-87
2022/04/28 05:46:57;;;;;;;;;35.50;32.25;;;;;12.68;50.08;102202.19;4963016;28;45416;-86
2022/04/28 05:49:23;;;;;;;;;37.00;33.50;;;;;12.89;50.40;102232.38;4962970;28;45651;-87
2022/04/28 05:51:49;;;;;;;;;42.00;34.75;;;;;12.65;50.21;102182.78;4945828;28;45959;-88
2022/04/28 05:54:15;;;;;;;;;37.50;34.75;;;;;12.90;50.32;102220.94;4945777;28;45337;-88
2022/04/28 05:56:42;;;;;;;;;40.75;34.75;;;;;12.73;50.21;102196.97;4945642;28;45442;-88
2022/04/28 05:59:09;;;;;;;;;36.50;32.00;;;;;12.94;49.91;102235.97;4962015;28;46432;-88
2022/04/28 06:01:34;;;;;;;;;38.50;32.25;;;;;13.08;50.28;102247.56;4962918;28;45389;-88
2022/04/28 06:04:00;;;;;;;;;43.50;37.00;;;;;13.12;49.94;102249.34;4961872;28;45454;-88
2022/04/28 06:06:28;;;;;;;;;40.75;34.00;;;;;12.90;49.93;102213.88;4962872;28;45424;-87
2022/04/28 06:08:54;;;;;;;;;38.50;33.75;;;;;12.97;50.11;102217.50;4962815;28;47950;-87
2022/04/28 06:11:19;;;;;;;;;41.25;32.00;;;;;13.17;50.07;102241.47;4945130;28;45291;-87
2022/04/28 06:13:50;;;;;;;;;37.00;32.00;;;;;13.08;49.95;102218.47;4947456;28;45247;-89
2022/04/28 06:48:04;;;;;;;;;;;;;;;;;;;;;
2022/04/28 06:51:11;;;;;;;;;38.25;33.75;;;;;13.65;49.77;102285.13;4961179;28;67439;-89
2022/04/28 06:53:48;;;;;;;;;44.25;36.50;;;;;13.39;49.67;102234.63;4949027;28;45635;-86
2022/04/28 06:56:14;;;;;;;;;40.00;34.75;;;;;13.66;49.65;102279.88;4978849;28;46208;-88
2022/04/28 06:58:55;;;;;;;;;;;;;;;;;;;;;
2022/04/28 07:07:17;;;;;;;;;44.50;36.00;;;;;13.96;49.23;102262.44;4972228;28;45347;-82
2022/04/28 07:10:00;;;;;;;;;43.00;34.00;;;;;13.97;49.04;102258.91;4962725;28;45690;-85
2022/04/28 07:12:26;;;;;;;;;42.00;32.25;;;;;14.09;48.74;102274.00;4959909;28;45514;-81
2022/04/28 07:14:51;;;;;;;;;42.25;35.50;;;;;14.05;48.62;102254.53;4959279;28;45528;-81
2022/04/28 07:17:17;;;;;;;;;43.75;34.50;;;;;14.12;48.50;102258.13;4971814;28;47305;-80
2022/04/28 07:19:42;;;;;;;;;43.25;35.00;;;;;14.31;48.67;102267.94;4954265;28;45332;-83
2022/04/28 07:22:07;;;;;;;;;43.50;37.00;;;;;14.30;48.67;102254.69;4981087;28;45676;-82
2022/04/28 07:24:33;;;;;;;;;42.75;36.00;;;;;14.45;48.16;102277.72;4968642;28;45529;-82
2022/04/28 07:26:59;;;;;;;;;39.50;34.00;;;;;14.66;48.49;102284.94;4958871;28;46791;-83
2022/04/28 07:29:25;;;;;;;;;45.50;38.25;;;;;14.81;48.01;102287.66;4960852;28;45533;-83
2022/04/28 07:31:50;;;;;;;;;45.75;38.00;;;;;14.96;48.22;102289.44;4963119;28;45275;-82
2022/04/28 07:34:16;;;;;;;;;42.25;36.50;;;;;15.07;47.66;102284.19;4962077;28;45326;-81
2022/04/28 07:36:41;;;;;;;;;41.50;36.50;;;;;15.13;47.35;102279.78;4979027;28;47925;-80
2022/04/28 07:39:06;;;;;;;;;46.25;34.50;;;;;15.16;46.95;102263.00;4959044;28;45445;-80
2022/04/28 07:41:32;;;;;;;;;41.75;37.00;;;;;15.17;47.27;102248.84;4979441;28;45306;-79
2022/04/28 07:43:57;;;;;;;;;39.25;33.50;;;;;15.51;47.05;102278.94;4948573;28;45397;-78
2022/04/28 07:46:23;;;;;;;;;35.75;32.75;;;;;15.60;46.83;102268.31;4969569;28;46468;-80
2022/04/28 07:48:48;;;;;;;;;42.50;36.75;;;;;15.71;46.39;102256.84;4996982;28;45463;-80
2022/04/28 07:51:14;;;;;;;;;42.00;34.50;;;;;15.91;46.08;102284.28;4978503;28;45527;-79
2022/04/28 07:53:39;;;;;;;;;39.00;34.00;;;;;16.04;46.10;102277.19;4980328;28;45301;-79
2022/04/28 07:56:12;;;;;;;;;40.50;34.25;;;;;16.13;45.80;102263.00;4979746;28;45448;-78
2022/04/28 07:58:38;;;;;;;;;43.75;35.00;;;;;16.30;45.57;102283.34;4979942;28;45534;-79
2022/04/28 08:01:04;;;;;;;;;41.00;34.75;;;;;16.47;45.48;102293.91;4978484;28;45713;-78
2022/04/28 08:03:30;;;;;;;;;40.75;34.75;;;;;16.46;45.40;102276.16;4979177;28;45527;-79
2022/04/28 08:05:56;;;;;;;;;36.00;33.25;;;;;16.63;45.00;102280.56;4986175;28;47611;-79
2022/04/28 08:08:21;;;;;;;;;37.75;33.25;;;;;16.78;44.63;102282.28;4999762;28;45393;-79
2022/04/28 08:10:48;;;;;;;;;32.75;31.50;;;;;16.79;44.60;102262.78;4993809;28;45261;-78
2022/04/28 08:13:13;;;;;;;;;35.50;32.25;;;;;16.90;44.01;102263.63;4997886;28;45496;-78
2022/04/28 08:15:39;;;;;;;;;38.25;33.00;;;;;16.95;44.06;102272.47;4990692;28;48261;-79
2022/04/28 08:18:04;;;;;;;;;36.50;32.25;;;;;17.08;43.75;102273.25;5011101;28;45253;-76
2022/04/28 08:20:30;;;;;;;;;37.50;32.75;;;;;17.15;43.98;102273.19;4990179;28;45500;-76
2022/04/28 08:22:56;;;;;;;;;37.50;33.75;;;;;17.43;43.90;102297.00;4998194;28;45720;-79
2022/04/28 08:25:22;;;;;;;;;34.75;31.00;;;;;17.65;43.18;102303.03;4990054;28;47288;-79
2022/04/28 08:27:47;;;;;;;;;37.50;31.25;;;;;17.68;43.28;102284.34;5014412;28;45308;-79
2022/04/28 08:30:13;;;;;;;;;33.25;32.00;;;;;17.81;42.93;102293.16;4997973;28;45397;-76
2022/04/28 08:32:42;;;;;;;;;38.50;32.25;;;;;17.88;42.79;102285.97;4992459;28;45428;-76
2022/04/28 08:35:08;;;;;;;;;40.25;33.25;;;;;17.93;42.58;102294.81;4997796;28;47407;-76
2022/04/28 08:37:33;;;;;;;;;40.75;33.50;;;;;18.12;42.59;102296.41;5008079;28;45373;-76
2022/04/28 08:39:59;;;;;;;;;39.50;32.25;;;;;18.12;42.06;102288.41;4997728;28;46340;-79
2022/04/28 08:42:26;;;;;;;;;36.50;32.50;;;;;18.20;41.97;102289.22;5002579;28;45426;-77
2022/04/28 08:44:58;;;;;;;;;38.25;31.50;;;;;18.44;42.21;102300.50;4994691;28;48280;-76
2022/04/28 08:47:24;;;;;;;;;32.25;29.75;;;;;18.47;42.20;102285.38;4986264;28;45483;-76
2022/04/28 08:49:50;;;;;;;;;34.75;31.00;;;;;18.51;41.96;102270.19;4982514;28;45279;-76
2022/04/28 08:52:16;;;;;;;;;31.50;31.00;;;;;18.78;41.27;102285.00;4981739;28;46054;-76
2022/04/28 08:54:44;;;;;;;;;31.75;30.75;;;;;18.79;41.33;102277.88;5002064;28;45535;-76
2022/04/28 08:57:12;;;;;;;;;32.75;29.50;;;;;18.82;41.26;102261.81;5002175;28;45351;-77
2022/04/28 08:59:38;;;;;;;;;37.25;32.75;;;;;18.98;40.70;102276.75;5001294;28;45271;-77
2022/04/28 09:02:03;;;;;;;;;32.00;30.50;;;;;19.12;40.44;102288.09;4984278;28;45515;-77
2022/04/28 09:04:30;;;;;;;;;35.25;32.00;;;;;19.12;40.81;102279.22;4984139;28;46994;-76
2022/04/28 09:06:56;;;;;;;;;33.50;30.50;;;;;19.13;40.61;102251.59;5002129;28;45370;-77
2022/04/28 09:09:25;;;;;;;;;31.00;28.25;;;;;19.26;40.57;102255.84;4984394;28;45514;-77
2022/04/28 09:11:53;;;;;;;;;32.75;29.50;;;;;19.35;40.33;102255.72;4984233;28;45323;-77
2022/04/28 09:14:22;;;;;;;;;32.50;29.00;;;;;19.49;40.52;102266.16;5001886;28;45278;-77
2022/04/28 09:17:03;;;;;;;;;30.25;28.50;;;;;19.68;40.24;102279.25;4974471;28;45459;-77
2022/04/28 09:19:37;;;;;;;;;30.75;28.50;;;;;19.70;40.16;102258.72;4992930;28;45515;-77
2022/04/28 09:22:09;;;;;;;;;33.00;29.25;;;;;19.82;39.74;102253.16;4983962;28;45464;-77
2022/04/28 09:24:37;;;;;;;;;31.25;28.75;;;;;19.84;39.28;102248.69;4983919;28;47176;-76
2022/04/28 09:27:03;;;;;;;;;31.50;30.00;;;;;20.08;39.36;102266.06;5001648;28;45216;-77
2022/04/28 09:29:30;;;;;;;;;32.00;29.25;;;;;20.04;38.98;102248.28;5002066;28;45428;-77
2022/04/28 09:31:56;;;;;;;;;27.50;23.50;;;;;20.18;39.04;102273.00;5001833;28;45340;-78
2022/04/28 09:34:25;;;;;;;;;28.75;28.50;;;;;20.11;38.91;102243.72;4983980;28;48009;-79
2022/04/28 09:36:51;;;;;;;;;30.75;28.25;;;;;20.29;38.58;102243.38;4984058;28;45646;-79
2022/04/28 09:44:53;;;;;;;;;26.75;25.00;;;;;;;;4982057;28;45513;-77
2022/04/28 09:47:19;;;;;;;;;28.75;25.25;;;;;20.81;37.25;102258.34;5000004;28;45340;-77
2022/04/28 09:49:52;;;;;;;;;23.50;22.25;;;;;20.81;37.27;102242.28;4990840;28;45414;-77
2022/04/28 09:52:24;;;;;;;;;28.00;24.00;;;;;20.93;36.09;102250.03;5008863;28;45775;-77
2022/04/28 09:54:56;;;;;;;;;22.50;22.50;;;;;20.89;37.11;102251.00;4980236;28;47177;-77
2022/04/28 09:57:22;;;;;;;;;22.75;22.50;;;;;20.97;37.01;102248.16;4973261;28;45281;-77
2022/04/28 09:59:50;;;;;;;;;26.50;24.75;;;;;21.07;36.51;102228.28;5016722;28;45425;-77
2022/04/28 10:02:17;;;;;;;;;24.50;24.50;;;;;21.21;36.87;102244.03;5016445;28;45538;-77
2022/04/28 10:04:43;;;;;;;;;24.00;24.00;;;;;21.25;37.23;102232.34;5015442;28;46952;-77
2022/04/28 10:07:09;;;;;;;;;22.00;21.50;;;;;21.35;36.28;102239.19;5001034;28;45266;-77
2022/04/28 10:09:39;;;;;;;;;22.25;22.25;;;;;21.40;36.07;102228.41;4999984;28;45357;-77
2022/04/28 10:12:06;;;;;;;;;17.75;17.75;;;;;21.57;36.06;102238.69;4999660;28;45522;-77
2022/04/28 10:14:34;;;;;;;;;19.25;18.50;;;;;21.55;35.62;102230.72;4999410;28;47444;-78
2022/04/28 10:17:01;;;;;;;;;25.00;23.00;;;;;21.62;35.43;102212.66;4986695;28;45357;-79
2022/04/28 10:19:35;;;;;;;;;23.00;22.75;;;;;21.75;35.69;102219.44;4991615;28;45475;-77
2022/04/28 10:22:10;;;;;;;;;18.75;16.75;;;;;21.93;34.85;102233.28;4999329;28;45357;-77
2022/04/28 10:33:04;;;;;;;;;21.25;19.00;;;;;22.03;34.78;102202.63;5000777;28;45444;-78
2022/04/28 10:35:48;;;;;;;;;16.50;15.75;;;;;22.23;34.44;102221.72;5025207;28;47296;-79
2022/04/28 10:38:38;;;;;;;;;14.50;14.25;;;;;22.19;33.54;102198.59;5035768;28;45297;-77
2022/04/28 10:41:08;;;;;;;;;14.00;12.00;;;;;22.37;33.52;102209.69;5035572;28;45405;-79
2022/04/28 10:43:33;;;;;;;;;13.75;12.25;;;;;22.49;33.08;102219.22;5009441;28;45346;-77
2022/04/28 10:46:01;;;;;;;;;13.00;12.25;;;;;22.55;33.21;102210.97;5000728;28;46503;-77
2022/04/28 10:48:30;;;;;;;;;12.75;12.75;;;;;22.57;32.36;102206.44;5008072;28;45520;-79
2022/04/28 10:51:16;;;;;;;;;15.50;14.25;;;;;22.52;31.43;102198.50;5001229;28;45442;-79
2022/04/28 10:54:19;;;;;;;;;11.50;10.25;;;;;22.59;31.68;102210.84;4998924;28;45538;-79
2022/04/28 10:56:44;;;;;;;;;14.00;12.50;;;;;22.67;31.81;102211.47;5016557;28;46653;-76
2022/04/28 10:59:34;;;;;;;;;11.75;10.75;;;;;22.81;31.09;102207.47;5035620;28;45406;-77
2022/04/28 11:02:15;;;;;;;;;9.00;8.50;;;;;22.90;31.24;102204.50;5035926;28;45451;-79
2022/04/28 11:04:43;;;;;;;;;12.00;10.75;;;;;22.99;30.65;102203.34;5020502;28;45551;-78
2022/04/28 11:07:10;;;;;;;;;11.75;10.50;;;;;23.16;30.90;102197.44;5035556;28;47506;-79
2022/04/28 11:09:41;;;;;;;;;10.75;10.25;;;;;23.23;30.77;102169.41;5020356;28;45310;-79
2022/04/28 11:12:11;;;;;;;;;10.50;9.25;;;;;23.60;30.26;102203.09;5020047;28;45224;-76
2022/04/28 11:14:45;;;;;;;;;11.25;11.00;;;;;23.79;29.96;102206.94;5020061;28;45521;-79
2022/04/28 11:17:13;;;;;;;;;9.75;9.00;;;;;23.93;29.42;102207.31;5000101;28;45354;-78
2022/04/28 11:19:40;;;;;;;;;11.00;11.00;;;;;24.04;29.37;102203.38;5004268;28;45433;-79
2022/04/28 11:22:05;;;;;;;;;14.75;14.75;;;;;24.10;28.93;102204.00;5015443;28;45369;-79
2022/04/28 11:24:32;;;;;;;;;8.25;7.25;;;;;23.96;29.22;102179.44;4999032;28;45393;-79
2022/04/28 11:27:01;;;;;;;;;13.00;12.25;;;;;24.05;28.65;102203.28;5016549;28;48158;-79
2022/04/28 11:29:30;;;;;;;;;11.25;11.25;;;;;23.87;28.63;102194.09;4999112;28;46215;-77
2022/04/28 11:31:58;;;;;;;;;11.00;9.50;;;;;23.80;28.68;102199.75;5030741;28;45406;-77
2022/04/28 11:34:24;;;;;;;;;10.00;10.00;;;;;23.86;28.59;102207.59;5019180;28;45183;-79
2022/04/28 11:36:49;;;;;;;;;9.25;8.75;;;;;23.68;28.43;102188.47;5000037;28;45243;-79
2022/04/28 11:39:14;;;;;;;;;9.00;9.00;;;;;23.66;28.02;102200.22;4998502;28;45298;-79
2022/04/28 11:41:42;;;;;;;;;10.50;10.50;;;;;23.68;27.71;102215.38;5002266;28;45333;-79
2022/04/28 11:44:17;;;;;;;;;9.50;8.00;;;;;23.69;27.99;102208.16;5020382;28;46370;-79
2022/04/28 11:46:51;;;;;;;;;8.75;8.75;;;;;23.72;28.30;102208.09;4999948;28;46525;-79
2022/04/28 11:49:18;;;;;;;;;10.75;10.25;;;;;23.84;28.04;102214.84;5004249;28;45479;-79
2022/04/28 11:51:44;;;;;;;;;9.25;8.50;;;;;23.87;27.94;102210.25;5015242;28;45373;-79
2022/04/28 11:54:26;;;;;;;;;9.00;9.00;;;;;23.90;28.13;102187.72;4998169;28;45427;-77
2022/04/28 11:57:06;;;;;;;;;7.75;7.75;;;;;24.29;27.95;102214.09;4997923;28;47345;-77
2022/04/28 11:59:36;;;;;;;;;9.00;9.00;;;;;24.47;27.93;102209.84;5015399;28;45468;-78
2022/04/28 12:02:01;;;;;;;;;8.75;8.75;;;;;24.56;27.40;102206.78;5020531;28;45404;-79
2022/04/28 12:04:27;;;;;;;;;7.00;6.00;;;;;24.62;27.44;102199.38;5034348;28;45458;-78
2022/04/28 12:06:53;;;;;;;;;8.75;8.50;;;;;24.78;26.69;102212.19;5019218;28;45495;-79
2022/04/28 12:14:47;;;;;;;;;8.25;8.25;;;;;24.80;25.84;102204.94;5018202;28;45524;-79
2022/04/28 12:20:04;;;;;;;;;10.75;10.75;;;;;24.87;26.22;102222.63;5004431;28;45255;-80
2022/04/28 12:22:31;;;;;;;;;10.00;10.00;;;;;25.02;26.43;102219.31;4997999;28;45265;-83
2022/04/28 12:25:08;;;;;;;;;4.25;4.25;;;;;25.12;26.30;102214.41;4999366;28;45530;-78
2022/04/28 12:27:51;;;;;;;;;10.25;10.25;;;;;25.13;26.35;102197.31;4998587;28;47074;-78
2022/04/28 12:30:18;;;;;;;;;10.75;10.75;;;;;25.24;26.79;102205.84;5009289;28;45313;-78
2022/04/28 12:32:50;;;;;;;;;7.75;7.75;;;;;25.29;26.64;102224.53;5002703;28;45534;-78